createdAt,value
2024-02-29T00:02:18.085Z,5.70
2024-02-29T00:04:50.316Z,5.70
2024-02-29T00:07:23.101Z,5.70
2024-02-29T00:09:55.350Z,5.60
2024-02-29T00:12:27.695Z,5.70
2024-02-29T00:15:00.168Z,5.60
2024-02-29T00:17:33.018Z,5.60
2024-02-29T00:20:10.336Z,5.50
2024-02-29T00:22:43.227Z,5.60
2024-02-29T00:25:15.450Z,5.60
2024-02-29T00:27:47.771Z,5.60
2024-02-29T00:30:19.967Z,5.70
2024-02-29T00:32:56.798Z,5.70
2024-02-29T00:35:30.142Z,5.70
2024-02-29T00:38:02.403Z,5.70
2024-02-29T00:40:34.568Z,5.70
2024-02-29T00:43:06.833Z,5.70
2024-02-29T00:45:39.324Z,5.70
2024-02-29T00:48:12.467Z,5.70
2024-02-29T00:50:44.891Z,5.70
2024-02-29T00:53:17.610Z,5.70
2024-02-29T00:55:50.398Z,5.70
2024-02-29T00:58:23.428Z,5.70
2024-02-29T01:00:56.019Z,5.70
2024-02-29T01:03:30.069Z,5.70
2024-02-29T01:06:03.027Z,5.60
2024-02-29T01:08:35.669Z,5.70
2024-02-29T01:11:07.989Z,5.60
2024-02-29T01:13:40.202Z,5.60
2024-02-29T01:16:12.537Z,5.60
2024-02-29T01:18:44.870Z,5.60
2024-02-29T01:21:18.010Z,5.60
2024-02-29T01:23:50.234Z,5.60
2024-02-29T01:26:23.020Z,5.60
2024-02-29T01:28:55.407Z,5.60
2024-02-29T01:31:27.585Z,5.60
2024-02-29T01:33:59.877Z,5.60
2024-02-29T01:36:32.251Z,5.60
2024-02-29T01:39:04.415Z,5.60
2024-02-29T01:41:37.505Z,5.60
2024-02-29T01:44:09.858Z,5.60
2024-02-29T01:46:42.874Z,5.60
2024-02-29T01:49:16.634Z,5.50
2024-02-29T01:51:49.699Z,5.60
2024-02-29T01:54:22.056Z,5.50
2024-02-29T01:56:54.353Z,5.60
2024-02-29T01:59:28.020Z,5.60
2024-02-29T02:02:00.567Z,5.60
2024-02-29T02:04:33.405Z,5.60
2024-02-29T02:07:06.104Z,5.60
2024-02-29T02:09:42.531Z,5.60
2024-02-29T02:12:15.005Z,5.60
2024-02-29T02:14:47.369Z,5.60
2024-02-29T02:17:19.641Z,5.60
2024-02-29T02:19:53.144Z,5.60
2024-02-29T02:22:25.903Z,5.50
2024-02-29T02:24:58.436Z,5.50
2024-02-29T02:27:30.690Z,5.40
2024-02-29T02:30:08.352Z,5.50
2024-02-29T02:32:41.516Z,5.50
2024-02-29T02:35:13.923Z,5.50
2024-02-29T02:37:49.116Z,5.50
2024-02-29T02:40:21.297Z,5.50
2024-02-29T02:42:53.595Z,5.50
2024-02-29T02:45:26.379Z,5.50
2024-02-29T02:47:58.760Z,5.50
2024-02-29T02:50:30.931Z,5.50
2024-02-29T02:53:05.529Z,5.50
2024-02-29T02:55:37.703Z,5.50
2024-02-29T02:58:10.121Z,5.50
2024-02-29T03:00:42.821Z,5.50
2024-02-29T03:03:15.567Z,5.50
2024-02-29T03:05:48.067Z,5.50
2024-02-29T03:08:22.078Z,5.50
2024-02-29T03:10:54.414Z,5.50
2024-02-29T03:13:26.774Z,5.50
2024-02-29T03:15:59.642Z,5.50
2024-02-29T03:18:31.966Z,5.50
2024-02-29T03:21:05.010Z,5.50
2024-02-29T03:23:37.412Z,5.50
2024-02-29T03:26:10.511Z,5.50
2024-02-29T03:28:43.348Z,5.50
2024-02-29T03:31:16.472Z,5.50
2024-02-29T03:33:48.719Z,5.50
2024-02-29T03:36:21.084Z,5.50
2024-02-29T03:38:53.306Z,5.50
2024-02-29T03:41:25.694Z,5.50
2024-02-29T03:43:58.227Z,5.50
2024-02-29T03:46:30.458Z,5.40
2024-02-29T03:49:02.670Z,5.50
2024-02-29T03:51:35.361Z,5.50
2024-02-29T03:54:07.875Z,5.40
2024-02-29T03:56:40.135Z,5.50
2024-02-29T03:59:12.458Z,5.50
2024-02-29T04:01:49.523Z,5.50
2024-02-29T04:04:22.059Z,5.40
2024-02-29T04:06:54.602Z,5.40
2024-02-29T04:09:26.903Z,5.50
2024-02-29T04:11:59.015Z,5.50
2024-02-29T04:14:31.273Z,5.40
2024-02-29T04:17:03.756Z,5.50
2024-02-29T04:19:35.984Z,5.40
2024-02-29T04:22:08.631Z,5.50
2024-02-29T04:24:41.094Z,5.50
2024-02-29T04:27:13.386Z,5.40
2024-02-29T04:29:47.472Z,5.40
2024-02-29T04:32:21.451Z,5.50
2024-02-29T04:34:55.079Z,5.50
2024-02-29T04:37:27.925Z,5.40
2024-02-29T04:40:00.483Z,5.40
2024-02-29T04:42:33.442Z,5.50
2024-02-29T04:45:07.004Z,5.50
2024-02-29T04:47:39.536Z,5.50
2024-02-29T04:50:11.902Z,5.50
2024-02-29T04:52:44.626Z,5.50
2024-02-29T04:55:17.072Z,5.40
2024-02-29T04:57:49.537Z,5.40
2024-02-29T05:00:22.434Z,5.40
2024-02-29T05:02:55.306Z,5.40
2024-02-29T05:05:29.453Z,5.40
2024-02-29T05:08:02.170Z,5.40
2024-02-29T05:10:35.035Z,5.40
2024-02-29T05:13:07.471Z,5.40
2024-02-29T05:15:40.499Z,5.50
2024-02-29T05:18:12.790Z,5.40
2024-02-29T05:20:45.297Z,5.40
2024-02-29T05:23:17.729Z,5.40
2024-02-29T05:25:50.177Z,5.50
2024-02-29T05:28:22.387Z,5.40
2024-02-29T05:30:54.676Z,5.40
2024-02-29T05:33:27.497Z,5.50
2024-02-29T05:36:01.245Z,5.40
2024-02-29T05:38:33.585Z,5.40
2024-02-29T05:41:05.989Z,5.50
2024-02-29T05:43:38.750Z,5.40
2024-02-29T05:46:11.347Z,5.40
2024-02-29T05:48:44.398Z,5.50
2024-02-29T05:51:16.729Z,5.40
2024-02-29T05:53:49.039Z,5.40
2024-02-29T05:56:21.551Z,5.50
2024-02-29T05:58:53.766Z,5.50
2024-02-29T06:01:26.059Z,5.50
2024-02-29T06:03:58.461Z,5.50
2024-02-29T06:06:30.741Z,5.50
2024-02-29T06:09:03.853Z,5.50
2024-02-29T06:11:36.696Z,5.50
2024-02-29T06:14:09.300Z,5.50
2024-02-29T06:16:41.857Z,5.50
2024-02-29T06:19:14.361Z,5.50
2024-02-29T06:21:47.410Z,5.50
2024-02-29T06:24:20.376Z,5.50
2024-02-29T06:26:52.705Z,5.50
2024-02-29T06:29:25.321Z,5.50
2024-02-29T06:31:58.596Z,5.50
2024-02-29T06:34:31.599Z,5.50
2024-02-29T06:37:04.257Z,5.50
2024-02-29T06:39:37.154Z,5.50
2024-02-29T06:42:09.437Z,5.60
2024-02-29T06:44:41.704Z,5.50
2024-02-29T06:47:14.231Z,5.60
2024-02-29T06:49:46.669Z,5.60
2024-02-29T06:52:19.080Z,5.70
2024-02-29T06:54:51.581Z,5.70
2024-02-29T06:57:23.787Z,5.70
2024-02-29T06:59:56.033Z,5.70
2024-02-29T07:02:28.289Z,5.70
2024-02-29T07:05:00.860Z,5.70
2024-02-29T07:07:33.331Z,5.70
2024-02-29T07:10:08.438Z,5.70
2024-02-29T07:12:42.426Z,5.80
2024-02-29T07:15:14.915Z,5.80
2024-02-29T07:17:47.380Z,5.80
2024-02-29T07:20:19.648Z,5.80
2024-02-29T07:22:53.050Z,5.80
2024-02-29T07:25:25.416Z,5.90
2024-02-29T07:27:58.944Z,5.90
2024-02-29T07:30:31.891Z,5.80
2024-02-29T07:33:05.463Z,5.90
2024-02-29T07:35:38.231Z,5.90
2024-02-29T07:38:10.719Z,6.00
2024-02-29T07:40:43.305Z,6.20
2024-02-29T07:43:15.584Z,6.10
2024-02-29T07:45:47.980Z,6.10
2024-02-29T07:48:20.285Z,6.10
2024-02-29T07:50:53.954Z,6.10
2024-02-29T07:53:26.871Z,6.10
2024-02-29T07:55:59.748Z,6.10
2024-02-29T07:58:32.315Z,6.20
2024-02-29T08:01:05.107Z,6.10
2024-02-29T08:03:38.386Z,6.20
2024-02-29T08:06:11.196Z,6.20
2024-02-29T08:08:43.316Z,6.30
2024-02-29T08:11:15.656Z,6.30
2024-02-29T08:13:47.888Z,6.30
2024-02-29T08:16:20.132Z,6.40
2024-02-29T08:18:53.399Z,6.40
2024-02-29T08:21:25.808Z,6.50
2024-02-29T08:23:58.263Z,6.50
2024-02-29T08:26:31.064Z,6.50
2024-02-29T08:29:03.281Z,6.70
2024-02-29T08:31:35.976Z,6.70
2024-02-29T08:34:08.308Z,6.70
2024-02-29T08:36:41.180Z,6.70
2024-02-29T08:39:14.371Z,6.70
2024-02-29T08:41:46.824Z,6.80
2024-02-29T08:44:19.105Z,6.80
2024-02-29T08:46:51.545Z,6.90
2024-02-29T08:49:24.344Z,7.00
2024-02-29T08:51:57.245Z,7.10
2024-02-29T08:54:29.579Z,7.20
2024-02-29T08:57:04.765Z,7.20
2024-02-29T08:59:37.711Z,7.20
2024-02-29T09:02:10.098Z,7.20
2024-02-29T09:04:42.638Z,7.20
2024-02-29T09:07:15.101Z,7.30
2024-02-29T09:09:47.486Z,7.40
2024-02-29T09:12:22.365Z,7.50
2024-02-29T09:14:54.783Z,7.60
2024-02-29T09:17:27.012Z,7.60
2024-02-29T09:19:59.346Z,7.50
2024-02-29T09:22:31.806Z,7.60
2024-02-29T09:25:05.372Z,7.60
2024-02-29T09:27:37.612Z,7.70
2024-02-29T09:30:10.263Z,7.70
2024-02-29T09:32:45.318Z,7.60
2024-02-29T09:35:17.641Z,7.60
2024-02-29T09:37:50.748Z,7.60
2024-02-29T09:40:23.163Z,7.60
2024-02-29T09:42:56.107Z,7.70
2024-02-29T09:45:35.673Z,7.60
2024-02-29T09:48:10.160Z,7.60
2024-02-29T09:50:42.610Z,7.60
2024-02-29T09:53:16.777Z,7.60
2024-02-29T09:55:49.711Z,7.60
2024-02-29T09:58:22.879Z,7.60
2024-02-29T10:00:55.102Z,7.60
2024-02-29T10:03:28.819Z,7.60
2024-02-29T10:06:01.640Z,7.60
2024-02-29T10:08:33.883Z,7.60
2024-02-29T10:11:07.094Z,7.60
2024-02-29T10:13:42.618Z,7.70
2024-02-29T10:16:15.036Z,7.70
2024-02-29T10:18:47.352Z,7.60
2024-02-29T10:21:19.626Z,7.70
2024-02-29T10:23:52.158Z,7.70
2024-02-29T10:26:24.351Z,7.70
2024-02-29T10:29:09.400Z,7.80
2024-02-29T10:31:41.696Z,7.80
2024-02-29T10:34:14.723Z,7.90
2024-02-29T10:36:47.778Z,7.90
2024-02-29T10:39:20.212Z,7.90
2024-02-29T10:41:57.869Z,7.90
2024-02-29T10:44:33.892Z,8.00
2024-02-29T10:47:10.539Z,8.00
2024-02-29T10:49:48.520Z,8.10
2024-02-29T10:52:26.012Z,8.10
2024-02-29T10:55:07.308Z,8.20
2024-02-29T10:57:53.630Z,8.20
2024-02-29T11:00:27.115Z,8.20
2024-02-29T11:02:59.576Z,8.30
2024-02-29T11:05:32.408Z,8.30
2024-02-29T11:08:06.070Z,8.30
2024-02-29T11:10:39.559Z,8.30
2024-02-29T11:13:21.773Z,8.30
2024-02-29T11:15:56.787Z,8.20
2024-02-29T11:18:30.147Z,8.30
2024-02-29T11:21:06.775Z,8.40
2024-02-29T11:23:42.353Z,8.50
2024-02-29T11:26:14.746Z,8.60
2024-02-29T11:28:50.343Z,8.70
2024-02-29T11:31:23.491Z,8.80
2024-02-29T11:33:57.355Z,9.10
2024-02-29T11:36:33.590Z,9.10
2024-02-29T11:39:12.082Z,9.40
2024-02-29T11:41:45.694Z,9.80
2024-02-29T11:44:18.098Z,10.00
2024-02-29T11:46:51.365Z,10.40
2024-02-29T11:49:25.509Z,10.70
2024-02-29T11:51:58.705Z,10.60
2024-02-29T11:54:33.999Z,10.60
2024-02-29T11:57:07.102Z,10.60
2024-02-29T11:59:40.264Z,10.60
2024-02-29T12:02:13.330Z,10.60
2024-02-29T12:04:46.051Z,10.50
2024-02-29T12:07:18.693Z,10.50
2024-02-29T12:09:51.169Z,10.70
2024-02-29T12:12:23.658Z,10.80
2024-02-29T12:14:56.110Z,11.00
2024-02-29T12:17:28.676Z,12.00
2024-02-29T12:20:01.819Z,13.30
2024-02-29T12:22:34.348Z,13.50
2024-02-29T12:25:14.322Z,13.60
2024-02-29T12:27:47.263Z,14.10
2024-02-29T12:30:23.268Z,14.10
2024-02-29T12:32:56.340Z,14.00
2024-02-29T12:35:32.549Z,13.50
2024-02-29T12:38:04.962Z,13.20
2024-02-29T12:40:37.254Z,13.40
2024-02-29T12:43:15.088Z,13.30
2024-02-29T12:45:47.407Z,12.80
2024-02-29T12:48:20.182Z,12.40
2024-02-29T12:50:52.988Z,12.20
2024-02-29T12:53:25.496Z,12.50
2024-02-29T12:55:57.894Z,12.50
2024-02-29T12:58:30.229Z,12.40
2024-02-29T13:01:04.671Z,12.40
2024-02-29T13:03:37.037Z,12.50
2024-02-29T13:06:10.856Z,12.50
2024-02-29T13:08:43.061Z,12.80
2024-02-29T13:11:15.766Z,14.00
2024-02-29T13:13:48.049Z,14.90
2024-02-29T13:16:21.029Z,15.20
2024-02-29T13:18:53.297Z,14.90
2024-02-29T13:21:26.068Z,14.60
2024-02-29T13:23:58.453Z,14.80
2024-02-29T13:26:30.913Z,14.20
2024-02-29T13:29:04.223Z,13.90
2024-02-29T13:31:36.535Z,13.70
2024-02-29T13:34:08.861Z,13.70
2024-02-29T13:36:41.261Z,13.50
2024-02-29T13:39:13.529Z,13.40
2024-02-29T13:41:46.678Z,13.40
2024-02-29T13:44:20.108Z,13.60
2024-02-29T13:46:52.366Z,14.00
2024-02-29T13:49:24.656Z,13.90
2024-02-29T13:51:57.576Z,14.00
2024-02-29T13:54:29.786Z,14.00
2024-02-29T13:57:03.066Z,15.80
2024-02-29T13:59:35.362Z,17.30
2024-02-29T14:02:07.987Z,18.00
2024-02-29T14:04:40.327Z,18.40
2024-02-29T14:07:13.648Z,18.50
2024-02-29T14:09:45.906Z,18.80
2024-02-29T14:12:18.174Z,19.40
2024-02-29T14:14:50.417Z,19.40
2024-02-29T14:17:22.761Z,19.80
2024-02-29T14:19:55.201Z,19.50
2024-02-29T14:22:27.574Z,19.40
2024-02-29T14:24:59.862Z,19.30
2024-02-29T14:27:32.315Z,19.40
2024-02-29T14:30:10.371Z,19.40
2024-02-29T14:32:43.975Z,19.20
2024-02-29T14:35:16.608Z,19.00
2024-02-29T14:37:49.494Z,18.50
2024-02-29T14:40:21.800Z,18.60
2024-02-29T14:42:54.209Z,18.40
2024-02-29T14:45:26.606Z,18.40
2024-02-29T14:47:59.872Z,18.40
2024-02-29T14:50:32.324Z,18.40
2024-02-29T14:53:04.624Z,18.20
2024-02-29T14:55:37.290Z,17.80
2024-02-29T14:58:10.125Z,17.60
2024-02-29T15:00:43.283Z,17.30
2024-02-29T15:03:15.567Z,16.60
2024-02-29T15:05:48.180Z,15.70
2024-02-29T15:08:20.649Z,15.10
2024-02-29T15:10:53.133Z,14.50
2024-02-29T15:13:26.526Z,14.00
2024-02-29T15:15:58.969Z,13.30
2024-02-29T15:18:31.441Z,13.00
2024-02-29T15:21:03.923Z,12.90
2024-02-29T15:23:36.417Z,12.70
2024-02-29T15:26:12.247Z,12.60
2024-02-29T15:28:50.604Z,12.30
2024-02-29T15:31:23.062Z,12.30
2024-02-29T15:33:55.293Z,12.00
2024-02-29T15:36:27.729Z,11.80
2024-02-29T15:39:00.086Z,11.60
2024-02-29T15:41:33.048Z,11.50
2024-02-29T15:44:05.352Z,11.40
2024-02-29T15:46:38.354Z,11.30
2024-02-29T15:49:11.062Z,11.10
2024-02-29T15:51:43.319Z,11.10
2024-02-29T15:54:15.913Z,11.10
2024-02-29T15:56:49.245Z,11.10
2024-02-29T15:59:21.744Z,10.90
2024-02-29T16:01:54.098Z,10.80
2024-02-29T16:04:27.289Z,10.60
2024-02-29T16:07:02.581Z,10.50
2024-02-29T16:09:34.823Z,10.40
2024-02-29T16:12:07.598Z,10.20
2024-02-29T16:14:41.770Z,10.20
2024-02-29T16:17:13.967Z,10.00
2024-02-29T16:19:47.997Z,10.00
2024-02-29T16:22:20.942Z,9.90
2024-02-29T16:24:53.223Z,9.70
2024-02-29T16:27:26.283Z,9.70
2024-02-29T16:29:58.556Z,9.70
2024-02-29T16:32:30.826Z,9.60
2024-02-29T16:35:05.079Z,9.60
2024-02-29T16:37:37.394Z,9.50
2024-02-29T16:40:10.955Z,9.40
2024-02-29T16:42:43.251Z,9.30
2024-02-29T16:45:16.063Z,9.20
2024-02-29T16:47:48.449Z,9.20
2024-02-29T16:50:20.712Z,9.10
2024-02-29T16:52:52.946Z,9.00
2024-02-29T16:55:25.217Z,9.00
2024-02-29T16:57:57.813Z,8.90
2024-02-29T17:00:30.660Z,8.80
2024-02-29T17:03:02.962Z,8.80
2024-02-29T17:05:35.385Z,8.70
2024-02-29T17:08:09.606Z,8.60
2024-02-29T17:10:42.398Z,8.50
2024-02-29T17:13:15.017Z,8.40
2024-02-29T17:15:47.489Z,8.30
2024-02-29T17:18:20.240Z,8.20
2024-02-29T17:20:52.755Z,8.20
2024-02-29T17:23:25.122Z,8.20
2024-02-29T17:25:57.385Z,8.20
2024-02-29T17:28:29.851Z,8.10
2024-02-29T17:31:02.234Z,8.00
2024-02-29T17:33:35.010Z,7.90
2024-02-29T17:36:07.860Z,7.80
2024-02-29T17:38:42.300Z,7.80
2024-02-29T17:41:15.710Z,7.70
2024-02-29T17:43:48.268Z,7.70
2024-02-29T17:46:20.741Z,7.70
2024-02-29T17:48:53.485Z,7.60
2024-02-29T17:51:25.837Z,7.50
2024-02-29T17:53:58.038Z,7.30
2024-02-29T17:56:30.184Z,7.30
2024-02-29T17:59:02.454Z,7.20
2024-02-29T18:01:35.231Z,7.10
2024-02-29T18:04:07.897Z,7.10
2024-02-29T18:06:40.170Z,7.00
2024-02-29T18:09:14.154Z,6.90
2024-02-29T18:11:46.381Z,6.80
2024-02-29T18:14:19.469Z,6.80
2024-02-29T18:16:52.443Z,6.80
2024-02-29T18:19:24.785Z,6.80
2024-02-29T18:21:57.685Z,6.80
2024-02-29T18:24:31.492Z,6.70
2024-02-29T18:27:04.264Z,6.70
2024-02-29T18:29:36.868Z,6.60
2024-02-29T18:32:09.632Z,6.50
2024-02-29T18:34:41.834Z,6.50
2024-02-29T18:37:14.373Z,6.40
2024-02-29T18:39:46.891Z,6.40
2024-02-29T18:42:19.718Z,6.20
2024-02-29T18:44:53.093Z,6.10
2024-02-29T18:47:26.616Z,6.00
2024-02-29T18:49:59.432Z,6.00
2024-02-29T18:52:32.558Z,6.00
2024-02-29T18:55:09.076Z,6.00
2024-02-29T18:57:41.989Z,6.00
2024-02-29T19:00:16.595Z,5.90
2024-02-29T19:02:49.003Z,5.70
2024-02-29T19:05:21.757Z,5.70
2024-02-29T19:07:54.099Z,5.80
2024-02-29T19:10:26.885Z,5.70
2024-02-29T19:12:59.382Z,5.60
2024-02-29T19:15:32.167Z,5.60
2024-02-29T19:18:04.789Z,5.60
2024-02-29T19:20:37.379Z,5.60
2024-02-29T19:23:13.253Z,5.60
2024-02-29T19:25:49.946Z,5.70
2024-02-29T19:28:25.097Z,5.60
2024-02-29T19:30:57.629Z,5.40
2024-02-29T19:33:29.911Z,5.40
2024-02-29T19:36:02.334Z,5.30
2024-02-29T19:38:34.698Z,5.20
2024-02-29T19:41:07.182Z,5.20
2024-02-29T19:43:39.833Z,5.00
2024-02-29T19:46:14.610Z,4.90
2024-02-29T19:48:47.404Z,4.90
2024-02-29T19:51:19.587Z,4.90
2024-02-29T19:53:56.322Z,5.00
2024-02-29T19:56:29.049Z,4.90
2024-02-29T19:59:01.645Z,5.00
2024-02-29T20:01:34.267Z,5.00
2024-02-29T20:04:07.302Z,5.10
2024-02-29T20:06:43.177Z,4.90
2024-02-29T20:09:16.574Z,5.00
2024-02-29T20:11:49.579Z,5.00
2024-02-29T20:14:21.948Z,5.00
2024-02-29T20:16:54.218Z,5.00
2024-02-29T20:19:27.015Z,4.80
2024-02-29T20:22:00.364Z,4.70
2024-02-29T20:24:32.911Z,4.70
2024-02-29T20:27:05.936Z,4.70
2024-02-29T20:29:40.781Z,4.70
2024-02-29T20:32:15.147Z,4.60
2024-02-29T20:34:48.756Z,4.60
2024-02-29T20:37:21.283Z,4.50
2024-02-29T20:39:54.772Z,4.50
2024-02-29T20:42:27.428Z,4.50
2024-02-29T20:44:59.676Z,4.50
2024-02-29T20:47:33.330Z,4.50
2024-02-29T20:50:06.150Z,4.50
2024-02-29T20:52:38.663Z,4.40
2024-02-29T20:55:11.494Z,4.40
2024-02-29T20:57:44.508Z,4.20
2024-02-29T21:00:17.642Z,4.20
2024-02-29T21:02:50.039Z,4.30
2024-02-29T21:05:22.484Z,4.20
2024-02-29T21:07:55.285Z,4.00
2024-02-29T21:10:27.593Z,4.00
2024-02-29T21:13:00.878Z,3.90
2024-02-29T21:15:33.134Z,3.80
2024-02-29T21:18:06.893Z,3.70
2024-02-29T21:20:39.226Z,3.80
2024-02-29T21:23:11.466Z,3.80
2024-02-29T21:25:44.002Z,3.90
2024-02-29T21:28:16.715Z,3.90
2024-02-29T21:30:48.970Z,3.80
2024-02-29T21:33:23.354Z,3.80
2024-02-29T21:35:56.141Z,3.80
2024-02-29T21:38:29.231Z,3.80
2024-02-29T21:41:01.404Z,3.90
2024-02-29T21:43:33.950Z,4.00
2024-02-29T21:46:08.485Z,3.90
2024-02-29T21:48:41.131Z,3.80
2024-02-29T21:51:20.060Z,3.70
2024-02-29T21:53:52.388Z,3.70
2024-02-29T21:56:24.568Z,3.70
2024-02-29T21:58:57.412Z,3.60
2024-02-29T22:01:29.846Z,3.70
2024-02-29T22:04:02.832Z,3.70
2024-02-29T22:06:35.350Z,3.60
2024-02-29T22:09:07.572Z,3.50
2024-02-29T22:11:39.854Z,3.40
2024-02-29T22:14:12.268Z,3.50
2024-02-29T22:16:45.158Z,3.50
2024-02-29T22:19:17.454Z,3.50
2024-02-29T22:21:50.503Z,3.40
2024-02-29T22:24:22.997Z,3.40
2024-02-29T22:26:56.071Z,3.40
2024-02-29T22:29:29.831Z,3.40
2024-02-29T22:32:02.333Z,3.30
2024-02-29T22:34:34.762Z,3.30
2024-02-29T22:37:07.338Z,3.20
2024-02-29T22:39:40.235Z,3.10
2024-02-29T22:42:13.165Z,3.10
2024-02-29T22:44:46.381Z,3.10
2024-02-29T22:47:19.562Z,3.20
2024-02-29T22:49:51.761Z,3.20
2024-02-29T22:52:24.320Z,3.20
2024-02-29T22:54:56.603Z,3.20
2024-02-29T22:57:29.382Z,3.10
2024-02-29T23:00:09.608Z,3.10
2024-02-29T23:02:43.085Z,3.20
2024-02-29T23:05:16.025Z,3.10
2024-02-29T23:07:48.485Z,3.10
2024-02-29T23:10:21.381Z,2.90
2024-02-29T23:12:54.676Z,2.80
2024-02-29T23:15:26.927Z,2.80
2024-02-29T23:17:59.311Z,2.80
2024-02-29T23:20:31.529Z,2.80
2024-02-29T23:23:04.117Z,2.70
2024-02-29T23:25:37.196Z,2.80
2024-02-29T23:28:09.690Z,2.80
2024-02-29T23:30:41.931Z,2.90
2024-02-29T23:33:14.419Z,2.90
2024-02-29T23:35:47.056Z,2.80
2024-02-29T23:38:19.888Z,2.70
2024-02-29T23:40:52.421Z,2.70
2024-02-29T23:43:25.254Z,2.70
2024-02-29T23:45:57.626Z,2.60
2024-02-29T23:48:29.813Z,2.60
2024-02-29T23:51:02.889Z,2.60
2024-02-29T23:53:35.065Z,2.60
2024-02-29T23:56:07.754Z,2.70
2024-02-29T23:58:41.797Z,2.80
